createdAt,value
2022-09-25T00:01:15.239Z,21.67
2022-09-25T00:03:42.146Z,21.00
2022-09-25T00:06:12.700Z,19.93
2022-09-25T00:08:40.265Z,18.90
2022-09-25T00:11:13.571Z,18.07
2022-09-25T00:13:41.798Z,18.20
2022-09-25T00:16:11.952Z,17.83
2022-09-25T00:18:57.594Z,17.40
2022-09-25T00:21:28.413Z,15.93
2022-09-25T00:23:55.288Z,17.30
2022-09-25T00:26:22.093Z,15.77
2022-09-25T00:28:57.633Z,16.43
2022-09-25T00:31:25.143Z,16.07
2022-09-25T00:33:53.556Z,16.43
2022-09-25T00:36:21.075Z,16.83
2022-09-25T00:38:49.006Z,16.93
2022-09-25T00:41:20.676Z,15.87
2022-09-25T00:43:51.341Z,16.17
2022-09-25T00:46:18.255Z,16.83
2022-09-25T00:49:13.285Z,16.60
2022-09-25T00:51:51.663Z,15.83
2022-09-25T00:54:31.765Z,14.87
2022-09-25T00:57:06.827Z,14.50
2022-09-25T00:59:38.675Z,15.37
2022-09-25T01:02:14.452Z,14.90
2022-09-25T01:04:46.199Z,15.30
2022-09-25T01:07:15.068Z,15.17
2022-09-25T01:09:45.671Z,14.77
2022-09-25T01:12:12.889Z,15.07
2022-09-25T01:14:41.653Z,15.50
2022-09-25T01:17:11.536Z,16.13
2022-09-25T01:20:07.178Z,14.80
2022-09-25T01:22:52.055Z,14.77
2022-09-25T01:25:56.995Z,15.17
2022-09-25T01:28:50.539Z,14.93
2022-09-25T01:31:32.625Z,15.33
2022-09-25T01:34:20.652Z,14.93
2022-09-25T01:37:04.236Z,15.07
2022-09-25T01:39:38.409Z,16.57
2022-09-25T01:42:20.671Z,16.33
2022-09-25T01:45:02.427Z,16.97
2022-09-25T01:47:30.934Z,16.23
2022-09-25T01:50:05.365Z,16.87
2022-09-25T01:52:37.715Z,17.23
2022-09-25T01:55:27.432Z,16.80
2022-09-25T01:58:03.784Z,17.57
2022-09-25T02:00:32.456Z,18.47
2022-09-25T02:03:12.162Z,21.03
2022-09-25T02:06:01.503Z,21.93
2022-09-25T02:08:39.691Z,21.60
2022-09-25T02:11:08.840Z,21.97
2022-09-25T02:13:54.156Z,22.93
2022-09-25T02:16:27.600Z,21.87
2022-09-25T02:19:23.534Z,21.17
2022-09-25T02:22:25.163Z,21.97
2022-09-25T02:25:13.015Z,22.50
2022-09-25T02:27:39.995Z,22.80
2022-09-25T02:30:07.316Z,22.90
2022-09-25T02:32:34.108Z,23.07
2022-09-25T02:35:01.227Z,23.17
2022-09-25T02:37:30.059Z,23.33
2022-09-25T02:40:02.307Z,23.53
2022-09-25T02:42:55.497Z,24.47
2022-09-25T02:45:40.359Z,25.43
2022-09-25T02:48:24.252Z,24.83
2022-09-25T02:51:28.865Z,25.37
2022-09-25T02:54:21.163Z,26.37
2022-09-25T02:57:12.666Z,25.90
2022-09-25T02:59:47.868Z,26.07
2022-09-25T03:02:16.563Z,27.40
2022-09-25T03:04:50.592Z,27.20
2022-09-25T03:07:19.531Z,27.17
2022-09-25T03:09:49.193Z,26.43
2022-09-25T03:12:16.481Z,26.20
2022-09-25T03:14:43.477Z,28.07
2022-09-25T03:17:11.714Z,27.40
2022-09-25T03:19:38.525Z,27.50
2022-09-25T03:22:05.395Z,26.73
2022-09-25T03:24:32.235Z,26.63
2022-09-25T03:26:59.321Z,26.80
2022-09-25T03:29:26.111Z,24.57
2022-09-25T03:31:52.898Z,26.10
2022-09-25T03:34:20.025Z,25.50
2022-09-25T03:36:47.683Z,25.30
2022-09-25T03:39:20.487Z,24.17
2022-09-25T03:41:50.928Z,25.17
2022-09-25T03:44:17.810Z,24.50
2022-09-25T03:46:45.116Z,24.50
2022-09-25T03:49:12.840Z,24.43
2022-09-25T03:51:39.797Z,24.50
2022-09-25T03:54:15.952Z,23.83
2022-09-25T03:56:45.767Z,24.10
2022-09-25T03:59:12.559Z,23.87
2022-09-25T04:01:40.215Z,23.50
2022-09-25T04:04:07.198Z,24.53
2022-09-25T04:06:34.000Z,24.63
2022-09-25T04:09:00.772Z,25.20
2022-09-25T04:11:27.616Z,23.90
2022-09-25T04:13:57.363Z,24.73
2022-09-25T04:16:24.479Z,25.73
2022-09-25T04:18:51.527Z,25.43
2022-09-25T04:21:18.664Z,25.10
2022-09-25T04:24:05.662Z,24.93
2022-09-25T04:26:32.785Z,25.23
2022-09-25T04:29:01.504Z,24.03
2022-09-25T04:31:29.324Z,24.20
2022-09-25T04:33:56.349Z,25.13
2022-09-25T04:36:23.266Z,24.17
2022-09-25T04:38:50.067Z,24.47
2022-09-25T04:41:19.705Z,25.07
2022-09-25T04:43:46.643Z,25.20
2022-09-25T04:46:20.112Z,25.43
2022-09-25T04:48:48.514Z,25.30
2022-09-25T04:51:16.089Z,24.40
2022-09-25T04:53:43.207Z,24.40
2022-09-25T04:56:15.835Z,24.53
2022-09-25T04:58:47.971Z,25.10
2022-09-25T05:01:17.243Z,25.37
2022-09-25T05:03:44.277Z,26.03
2022-09-25T05:06:11.239Z,25.73
2022-09-25T05:08:38.110Z,26.30
2022-09-25T05:11:05.670Z,26.70
2022-09-25T05:13:38.420Z,27.80
2022-09-25T05:16:05.496Z,26.70
2022-09-25T05:18:32.398Z,27.67
2022-09-25T05:21:03.928Z,29.03
2022-09-25T05:23:30.780Z,29.03
2022-09-25T05:26:03.852Z,28.87
2022-09-25T05:28:31.926Z,29.07
2022-09-25T05:31:02.773Z,29.73
2022-09-25T05:33:33.554Z,30.50
2022-09-25T05:36:05.485Z,30.63
2022-09-25T05:38:33.746Z,29.27
2022-09-25T05:41:08.755Z,29.53
2022-09-25T05:43:43.368Z,28.83
2022-09-25T05:46:11.405Z,28.07
2022-09-25T05:48:38.882Z,28.13
2022-09-25T05:51:06.615Z,28.23
2022-09-25T05:53:33.438Z,26.33
2022-09-25T05:56:02.008Z,26.20
2022-09-25T05:58:30.858Z,26.00
2022-09-25T06:01:03.435Z,25.57
2022-09-25T06:03:30.949Z,25.00
2022-09-25T06:05:59.328Z,24.57
2022-09-25T06:08:27.364Z,23.97
2022-09-25T06:10:55.400Z,25.17
2022-09-25T06:13:23.580Z,24.67
2022-09-25T06:15:52.520Z,23.43
2022-09-25T06:18:24.212Z,23.50
2022-09-25T06:20:52.770Z,23.07
2022-09-25T06:23:19.838Z,22.83
2022-09-25T06:25:46.622Z,22.60
2022-09-25T06:28:13.443Z,22.20
2022-09-25T06:30:40.370Z,21.13
2022-09-25T06:33:12.673Z,21.23
2022-09-25T06:35:50.085Z,21.40
2022-09-25T06:38:17.529Z,20.13
2022-09-25T06:40:45.466Z,20.63
2022-09-25T06:43:16.734Z,21.00
2022-09-25T06:45:44.660Z,23.00
2022-09-25T06:48:18.170Z,22.50
2022-09-25T06:50:53.253Z,22.77
2022-09-25T06:53:22.637Z,20.80
2022-09-25T06:55:50.345Z,21.23
2022-09-25T06:58:20.597Z,20.87
2022-09-25T07:00:49.199Z,21.50
2022-09-25T07:03:34.829Z,20.40
2022-09-25T07:06:03.800Z,20.67
2022-09-25T07:08:31.159Z,20.47
2022-09-25T07:11:02.388Z,20.57
2022-09-25T07:13:32.865Z,20.23
2022-09-25T07:16:02.072Z,19.27
2022-09-25T07:18:29.722Z,21.27
2022-09-25T07:21:02.122Z,20.30
2022-09-25T07:23:31.104Z,19.67
2022-09-25T07:26:14.015Z,20.07
2022-09-25T07:28:42.194Z,19.93
2022-09-25T07:31:19.316Z,19.57
2022-09-25T07:33:47.066Z,20.13
2022-09-25T07:36:15.318Z,19.83
2022-09-25T07:38:42.985Z,20.13
2022-09-25T07:41:13.581Z,20.13
2022-09-25T07:43:43.499Z,20.73
2022-09-25T07:46:18.253Z,21.10
2022-09-25T07:48:47.910Z,19.40
2022-09-25T07:51:14.712Z,20.00
2022-09-25T07:53:42.976Z,20.47
2022-09-25T07:56:11.921Z,20.17
2022-09-25T07:58:40.228Z,20.00
2022-09-25T08:01:10.909Z,19.83
2022-09-25T08:03:37.929Z,18.80
2022-09-25T08:06:11.770Z,19.00
2022-09-25T08:08:40.200Z,19.10
2022-09-25T08:11:12.580Z,19.83
2022-09-25T08:13:41.334Z,19.63
2022-09-25T08:16:13.589Z,19.13
2022-09-25T08:18:41.884Z,19.07
2022-09-25T08:21:10.246Z,19.60
2022-09-25T08:23:37.277Z,19.07
2022-09-25T08:26:04.083Z,19.60
2022-09-25T08:28:31.328Z,19.30
2022-09-25T08:31:00.344Z,19.03
2022-09-25T08:33:27.464Z,18.73
2022-09-25T08:35:59.051Z,18.03
2022-09-25T08:38:27.169Z,18.20
2022-09-25T08:41:17.346Z,18.53
2022-09-25T08:44:07.509Z,18.47
2022-09-25T08:47:04.150Z,18.03
2022-09-25T08:49:36.777Z,16.90
2022-09-25T08:52:13.598Z,16.77
2022-09-25T08:54:43.433Z,16.70
2022-09-25T08:57:28.365Z,16.63
2022-09-25T09:00:02.353Z,16.73
2022-09-25T09:02:53.425Z,16.90
2022-09-25T09:05:23.064Z,16.10
2022-09-25T09:07:57.582Z,16.90
2022-09-25T09:10:53.335Z,15.90
2022-09-25T09:14:02.879Z,15.73
2022-09-25T09:17:05.441Z,13.83
2022-09-25T09:19:38.299Z,14.70
2022-09-25T09:22:47.166Z,13.87
2022-09-25T09:25:55.094Z,14.63
2022-09-25T09:28:53.032Z,13.90
2022-09-25T09:31:52.475Z,13.60
2022-09-25T09:35:07.342Z,13.10
2022-09-25T09:37:52.871Z,12.53
2022-09-25T09:40:47.257Z,13.47
2022-09-25T09:43:56.499Z,12.97
2022-09-25T09:46:32.779Z,12.97
2022-09-25T09:49:05.655Z,11.90
2022-09-25T09:51:39.965Z,12.10
2022-09-25T09:54:17.956Z,12.10
2022-09-25T09:56:55.359Z,11.80
2022-09-25T09:59:31.926Z,11.27
2022-09-25T10:02:18.519Z,11.87
2022-09-25T10:04:47.975Z,11.40
2022-09-25T10:07:18.529Z,12.20
2022-09-25T10:09:48.407Z,12.23
2022-09-25T10:12:36.373Z,11.07
2022-09-25T10:15:15.089Z,11.67
2022-09-25T10:18:15.284Z,11.37
2022-09-25T10:20:49.605Z,12.00
2022-09-25T10:23:35.525Z,11.53
2022-09-25T10:26:02.523Z,10.80
2022-09-25T10:28:34.268Z,10.53
2022-09-25T10:31:03.208Z,9.50
2022-09-25T10:33:31.591Z,10.30
2022-09-25T10:35:58.798Z,10.13
2022-09-25T10:38:39.465Z,9.57
2022-09-25T10:41:18.605Z,9.45
2022-09-25T10:43:55.656Z,8.37
2022-09-25T10:46:54.684Z,8.93
2022-09-25T10:49:43.102Z,9.57
2022-09-25T10:52:15.823Z,9.25
2022-09-25T10:54:45.488Z,8.87
2022-09-25T10:57:18.124Z,8.48
2022-09-25T10:59:52.667Z,7.82
2022-09-25T11:02:42.160Z,8.30
2022-09-25T11:05:22.000Z,8.90
2022-09-25T11:07:55.318Z,8.98
2022-09-25T11:10:27.720Z,7.88
2022-09-25T11:12:56.664Z,8.10
2022-09-25T11:15:35.044Z,8.18
2022-09-25T11:18:06.241Z,7.47
2022-09-25T11:20:33.231Z,6.55
2022-09-25T11:23:08.735Z,6.57
2022-09-25T11:25:58.620Z,6.10
2022-09-25T11:28:44.444Z,5.72
2022-09-25T11:31:29.999Z,5.20
2022-09-25T11:36:59.319Z,4.60
2022-09-25T11:39:54.191Z,4.30
2022-09-25T11:43:05.920Z,4.45
2022-09-25T11:45:42.133Z,4.53
2022-09-25T11:48:29.002Z,4.85
2022-09-25T11:55:00.432Z,4.25
2022-09-25T11:57:51.726Z,4.65
2022-09-25T12:03:51.207Z,4.25
2022-09-25T12:06:49.101Z,4.68
2022-09-25T12:09:54.381Z,4.75
2022-09-25T12:12:53.305Z,5.28
2022-09-25T12:15:23.093Z,4.95
2022-09-25T12:17:49.934Z,5.13
2022-09-25T12:20:54.225Z,5.15
2022-09-25T12:23:36.017Z,5.93
2022-09-25T12:26:26.920Z,5.95
2022-09-25T12:29:29.063Z,5.68
2022-09-25T12:32:05.890Z,5.53
2022-09-25T12:34:56.663Z,6.15
2022-09-25T12:37:43.690Z,5.80
2022-09-25T12:40:43.528Z,6.40
2022-09-25T12:43:41.616Z,6.00
2022-09-25T12:46:17.832Z,6.43
2022-09-25T12:49:19.830Z,6.60
2022-09-25T12:51:51.397Z,6.45
2022-09-25T12:54:24.200Z,6.72
2022-09-25T12:57:01.988Z,6.55
2022-09-25T12:59:56.701Z,6.32
2022-09-25T13:02:38.196Z,7.40
2022-09-25T13:05:34.130Z,6.28
2022-09-25T13:08:31.551Z,6.10
2022-09-25T13:11:15.858Z,6.93
2022-09-25T13:13:49.535Z,6.60
2022-09-25T13:16:17.039Z,6.20
2022-09-25T13:18:49.152Z,6.50
2022-09-25T13:21:31.464Z,6.10
2022-09-25T13:23:59.606Z,6.20
2022-09-25T13:26:27.605Z,5.73
2022-09-25T13:29:13.178Z,6.00
2022-09-25T13:31:58.363Z,5.80
2022-09-25T13:34:26.597Z,5.20
2022-09-25T13:36:57.989Z,5.43
2022-09-25T13:40:03.851Z,5.03
2022-09-25T13:42:39.121Z,5.40
2022-09-25T13:45:26.096Z,5.70
2022-09-25T13:48:06.942Z,5.63
2022-09-25T13:50:40.886Z,5.20
2022-09-25T13:53:17.393Z,4.87
2022-09-25T13:56:04.302Z,5.10
2022-09-25T13:58:59.920Z,5.37
2022-09-25T14:01:34.436Z,5.30
2022-09-25T14:04:37.699Z,5.23
2022-09-25T14:07:21.468Z,5.03
2022-09-25T14:09:57.957Z,5.83
2022-09-25T14:12:44.096Z,5.10
2022-09-25T14:15:40.343Z,5.23
2022-09-25T14:18:15.963Z,5.77
2022-09-25T14:23:55.054Z,5.43
2022-09-25T14:33:01.858Z,5.60
2022-09-25T14:36:07.078Z,5.20
2022-09-25T14:39:25.684Z,5.17
2022-09-25T14:42:17.518Z,5.67
2022-09-25T14:44:54.236Z,6.10
2022-09-25T14:47:21.965Z,5.40
2022-09-25T14:49:55.204Z,5.50
2022-09-25T14:56:15.374Z,5.70
2022-09-25T15:02:56.850Z,5.27
2022-09-25T15:05:27.804Z,5.63
2022-09-25T15:07:59.387Z,5.27
2022-09-25T15:10:33.803Z,5.93
2022-09-25T15:13:13.087Z,5.40
2022-09-25T15:15:40.594Z,5.10
2022-09-25T15:18:14.370Z,5.93
2022-09-25T15:20:47.653Z,5.50
2022-09-25T15:23:19.028Z,5.23
2022-09-25T15:25:49.631Z,5.37
2022-09-25T15:28:24.592Z,5.30
2022-09-25T15:31:00.183Z,5.50
2022-09-25T15:33:34.053Z,5.40
2022-09-25T15:40:37.232Z,5.57
2022-09-25T15:43:12.812Z,5.87
2022-09-25T15:45:47.191Z,6.03
2022-09-25T15:48:22.685Z,5.93
2022-09-25T15:50:50.304Z,5.50
2022-09-25T15:53:36.222Z,5.73
2022-09-25T15:56:20.937Z,5.90
2022-09-25T15:58:54.856Z,5.90
2022-09-25T16:01:43.503Z,6.10
2022-09-25T16:04:39.419Z,5.47
2022-09-25T16:07:27.240Z,5.80
2022-09-25T16:09:57.310Z,5.90
2022-09-25T16:12:30.022Z,5.83
2022-09-25T16:14:58.072Z,6.00
2022-09-25T16:17:35.695Z,6.27
2022-09-25T16:20:16.723Z,6.30
2022-09-25T16:22:49.493Z,6.30
2022-09-25T16:25:24.741Z,6.20
2022-09-25T16:27:53.953Z,6.57
2022-09-25T16:30:23.132Z,6.83
2022-09-25T16:32:56.412Z,17.03
2022-09-25T16:36:08.882Z,7.50
2022-09-25T16:38:31.918Z,7.50
2022-09-25T16:41:22.391Z,7.30
2022-09-25T16:44:14.669Z,6.60
2022-09-25T16:46:52.293Z,6.63
2022-09-25T16:49:22.173Z,6.60
2022-09-25T16:51:50.468Z,6.60
2022-09-25T16:54:19.864Z,6.40
2022-09-25T16:56:48.292Z,6.60
2022-09-25T16:59:25.631Z,6.17
2022-09-25T17:01:56.992Z,7.27
2022-09-25T17:04:26.970Z,6.33
2022-09-25T17:06:57.040Z,6.73
2022-09-25T17:09:31.451Z,6.83
2022-09-25T17:12:07.513Z,6.63
2022-09-25T17:14:35.008Z,6.70
2022-09-25T17:17:02.089Z,7.27
2022-09-25T17:19:29.016Z,8.47
2022-09-25T17:21:56.223Z,8.50
2022-09-25T17:24:26.574Z,7.97
2022-09-25T17:26:53.729Z,8.70
2022-09-25T17:29:21.073Z,8.07
2022-09-25T17:31:48.170Z,8.47
2022-09-25T17:34:19.677Z,8.67
2022-09-25T17:36:47.085Z,9.70
2022-09-25T17:39:14.075Z,9.33
2022-09-25T17:41:41.777Z,9.27
2022-09-25T17:44:18.623Z,9.37
2022-09-25T17:46:45.886Z,9.97
2022-09-25T17:49:13.356Z,9.90
2022-09-25T17:51:40.833Z,9.50
2022-09-25T17:54:09.126Z,9.63
2022-09-25T17:56:37.860Z,10.07
2022-09-25T17:59:05.615Z,9.73
2022-09-25T18:01:38.934Z,10.13
2022-09-25T18:04:22.426Z,10.50
2022-09-25T18:06:49.308Z,10.07
2022-09-25T18:09:16.264Z,11.50
2022-09-25T18:11:44.351Z,10.93
2022-09-25T18:14:12.858Z,11.40
2022-09-25T18:16:42.146Z,11.67
2022-09-25T18:19:38.704Z,11.70
2022-09-25T18:22:19.116Z,12.23
2022-09-25T18:24:48.061Z,11.80
2022-09-25T18:27:15.738Z,11.07
2022-09-25T18:29:44.656Z,10.80
2022-09-25T18:32:11.671Z,11.80
2022-09-25T18:34:38.501Z,11.33
2022-09-25T18:37:05.541Z,11.37
2022-09-25T18:39:32.490Z,13.07
2022-09-25T18:41:59.333Z,13.17
2022-09-25T18:44:27.117Z,14.90
2022-09-25T18:46:54.720Z,14.50
2022-09-25T18:49:22.221Z,15.07
2022-09-25T18:51:49.221Z,15.37
2022-09-25T18:54:17.216Z,15.93
2022-09-25T18:56:44.006Z,16.20
2022-09-25T18:59:11.003Z,15.67
2022-09-25T19:01:39.383Z,17.03
2022-09-25T19:04:06.829Z,17.97
2022-09-25T19:06:34.169Z,18.03
2022-09-25T19:09:01.394Z,16.90
2022-09-25T19:11:28.967Z,15.93
2022-09-25T19:13:56.521Z,16.27
2022-09-25T19:16:24.274Z,17.47
2022-09-25T19:18:51.379Z,16.87
2022-09-25T19:21:22.755Z,17.87
2022-09-25T19:23:50.825Z,16.83
2022-09-25T19:26:25.946Z,16.50
2022-09-25T19:28:53.472Z,16.90
2022-09-25T19:31:23.329Z,17.40
2022-09-25T19:33:50.952Z,17.37
2022-09-25T19:36:24.689Z,17.07
2022-09-25T19:38:51.964Z,16.57
2022-09-25T19:41:25.023Z,16.90
2022-09-25T19:43:53.505Z,17.50
2022-09-25T19:46:20.539Z,18.03
2022-09-25T19:48:48.695Z,16.83
2022-09-25T19:51:17.478Z,17.20
2022-09-25T19:53:44.709Z,17.47
2022-09-25T19:56:11.898Z,18.00
2022-09-25T19:58:39.033Z,17.83
2022-09-25T20:01:11.093Z,17.17
2022-09-25T20:03:38.115Z,17.53
2022-09-25T20:06:05.862Z,18.13
2022-09-25T20:08:33.138Z,18.53
2022-09-25T20:11:00.273Z,18.57
2022-09-25T20:13:27.157Z,18.40
2022-09-25T20:15:55.046Z,20.37
2022-09-25T20:18:23.098Z,20.93
2022-09-25T20:20:50.065Z,20.23
2022-09-25T20:23:16.928Z,21.20
2022-09-25T20:25:43.853Z,19.60
2022-09-25T20:28:12.932Z,19.67
2022-09-25T20:30:40.135Z,20.20
2022-09-25T20:33:07.105Z,20.13
2022-09-25T20:35:34.226Z,20.90
2022-09-25T20:38:01.022Z,20.53
2022-09-25T20:40:27.861Z,20.60
2022-09-25T20:42:54.934Z,19.93
2022-09-25T20:45:21.716Z,20.83
2022-09-25T20:47:48.709Z,20.10
2022-09-25T20:50:15.927Z,21.40
2022-09-25T20:52:44.290Z,20.00
2022-09-25T20:55:12.204Z,21.33
2022-09-25T20:57:39.006Z,20.57
2022-09-25T21:00:06.398Z,21.67
2022-09-25T21:02:33.237Z,20.27
2022-09-25T21:05:00.027Z,20.93
2022-09-25T21:07:33.326Z,22.10
2022-09-25T21:10:01.219Z,21.80
2022-09-25T21:12:28.930Z,22.57
2022-09-25T21:14:58.976Z,22.73
2022-09-25T21:17:45.414Z,23.53
2022-09-25T21:20:12.606Z,22.90
2022-09-25T21:22:40.253Z,21.53
2022-09-25T21:25:07.494Z,22.23
2022-09-25T21:27:34.326Z,23.53
2022-09-25T21:30:01.341Z,23.10
2022-09-25T21:32:29.722Z,21.63
2022-09-25T21:34:56.500Z,22.47
2022-09-25T21:37:23.592Z,22.20
2022-09-25T21:39:50.358Z,23.87
2022-09-25T21:42:17.235Z,22.47
2022-09-25T21:44:44.104Z,22.20
2022-09-25T21:47:10.885Z,21.43
2022-09-25T21:49:38.545Z,21.90
2022-09-25T21:52:05.449Z,22.33
2022-09-25T21:54:32.473Z,22.07
2022-09-25T21:56:59.366Z,22.17
2022-09-25T21:59:26.480Z,21.00
2022-09-25T22:01:53.409Z,21.33
2022-09-25T22:04:20.221Z,22.70
2022-09-25T22:06:48.340Z,22.30
2022-09-25T22:09:23.218Z,22.93
2022-09-25T22:11:51.208Z,21.97
2022-09-25T22:14:20.013Z,22.07
2022-09-25T22:16:49.670Z,22.67
2022-09-25T22:19:29.609Z,22.53
2022-09-25T22:21:58.712Z,22.13
2022-09-25T22:24:25.905Z,22.57
2022-09-25T22:26:55.989Z,22.27
2022-09-25T22:29:23.547Z,21.27
2022-09-25T22:31:50.751Z,21.90
2022-09-25T22:34:27.143Z,22.87
2022-09-25T22:36:58.945Z,21.57
2022-09-25T22:39:27.268Z,22.27
2022-09-25T22:41:55.573Z,22.37
2022-09-25T22:44:22.847Z,22.27
2022-09-25T22:46:49.882Z,21.57
2022-09-25T22:49:16.856Z,21.97
2022-09-25T22:51:43.838Z,21.97
2022-09-25T22:54:13.817Z,22.83
2022-09-25T22:56:41.149Z,21.23
2022-09-25T22:59:11.322Z,21.93
2022-09-25T23:01:42.835Z,22.67
2022-09-25T23:04:16.695Z,21.60
2022-09-25T23:06:43.802Z,21.20
2022-09-25T23:09:13.506Z,20.60
2022-09-25T23:11:41.076Z,20.27
2022-09-25T23:14:17.452Z,20.37
2022-09-25T23:16:46.475Z,19.47
2022-09-25T23:19:14.615Z,20.37
2022-09-25T23:21:42.154Z,19.87
2022-09-25T23:24:12.439Z,19.47
2022-09-25T23:26:39.581Z,20.13
2022-09-25T23:29:06.404Z,19.67
2022-09-25T23:31:34.232Z,19.37
2022-09-25T23:34:02.180Z,20.07
2022-09-25T23:36:29.984Z,19.53
2022-09-25T23:39:00.610Z,19.10
2022-09-25T23:41:30.497Z,18.57
2022-09-25T23:43:58.698Z,18.37
2022-09-25T23:46:43.694Z,18.70
2022-09-25T23:49:11.353Z,18.73
2022-09-25T23:51:38.883Z,18.83
2022-09-25T23:54:06.391Z,17.93
2022-09-25T23:56:34.788Z,18.23
2022-09-25T23:59:02.587Z,17.93
